createdAt,value
2023-05-18T00:05:53.448Z,7.2
2023-05-18T00:11:54.034Z,7.1
2023-05-18T00:17:53.849Z,7.2
2023-05-18T00:23:53.244Z,7
2023-05-18T00:29:53.457Z,7
2023-05-18T00:35:53.784Z,7.2
2023-05-18T00:41:53.421Z,7.2
2023-05-18T00:47:53.184Z,7
2023-05-18T00:53:53.623Z,7
2023-05-18T00:59:53.461Z,7
2023-05-18T01:05:53.281Z,6.9
2023-05-18T01:11:53.400Z,6.9
2023-05-18T01:17:53.334Z,6.8
2023-05-18T01:23:52.939Z,6.7
2023-05-18T01:29:53.085Z,6.7
2023-05-18T01:35:53.702Z,6.8
2023-05-18T01:41:53.371Z,6.6
2023-05-18T01:47:53.218Z,6.6
2023-05-18T01:53:53.290Z,6.5
2023-05-18T01:59:53.160Z,6.5
2023-05-18T02:05:53.530Z,6.4
2023-05-18T02:11:53.568Z,6.2
2023-05-18T02:17:53.472Z,6.1
2023-05-18T02:23:53.421Z,6.1
2023-05-18T02:29:54.374Z,6.1
2023-05-18T02:35:53.873Z,6.2
2023-05-18T02:41:54.137Z,6.3
2023-05-18T02:47:54.311Z,6.1
2023-05-18T02:53:53.266Z,6
2023-05-18T02:59:53.241Z,6
2023-05-18T03:05:53.301Z,5.9
2023-05-18T03:11:53.658Z,5.9
2023-05-18T03:17:53.371Z,5.8
2023-05-18T03:23:53.325Z,5.8
2023-05-18T03:29:53.475Z,5.7
2023-05-18T03:35:53.639Z,5.7
2023-05-18T03:47:53.602Z,5.6
2023-05-18T03:53:53.240Z,5.6
2023-05-18T03:59:53.792Z,5.6
2023-05-18T04:05:53.628Z,5.5
2023-05-18T04:11:53.966Z,5.5
2023-05-18T04:17:53.736Z,5.4
2023-05-18T04:23:53.360Z,5.5
2023-05-18T04:29:54.674Z,5.4
2023-05-18T04:35:53.728Z,5.4
2023-05-18T04:41:53.601Z,5.4
2023-05-18T04:47:54.406Z,5.5
2023-05-18T04:53:53.321Z,5.5
2023-05-18T04:59:53.733Z,5.5
2023-05-18T05:05:53.526Z,5.7
2023-05-18T05:17:53.685Z,6.1
2023-05-18T05:23:53.492Z,6.1
2023-05-18T05:29:54.033Z,6.2
2023-05-18T05:35:53.514Z,6.3
2023-05-18T05:41:54.044Z,6.5
2023-05-18T05:47:53.672Z,6.6
2023-05-18T05:53:53.306Z,6.8
2023-05-18T05:59:53.865Z,6.7
2023-05-18T06:05:53.421Z,6.8
2023-05-18T06:11:53.351Z,6.8
2023-05-18T06:17:53.678Z,6.9
2023-05-18T06:23:53.846Z,7.1
2023-05-18T06:29:53.199Z,7
2023-05-18T06:35:53.288Z,7.2
2023-05-18T06:41:53.975Z,7.5
2023-05-18T06:47:53.407Z,7.4
2023-05-18T06:53:53.697Z,7.6
2023-05-18T06:59:53.677Z,7.6
2023-05-18T07:05:53.315Z,7.8
2023-05-18T07:11:53.343Z,8.1
2023-05-18T07:17:53.501Z,8.2
2023-05-18T07:23:53.373Z,8.4
2023-05-18T07:29:53.451Z,8.7
2023-05-18T07:35:54.009Z,8.4
2023-05-18T07:41:53.426Z,8.5
2023-05-18T07:47:53.281Z,8.5
2023-05-18T07:53:53.608Z,8.6
2023-05-18T07:59:53.188Z,8.9
2023-05-18T08:05:53.172Z,9.1
2023-05-18T08:11:53.670Z,9
2023-05-18T08:17:53.295Z,9.4
2023-05-18T08:23:53.681Z,9.3
2023-05-18T08:29:53.641Z,9.4
2023-05-18T08:35:53.280Z,9.2
2023-05-18T08:41:53.191Z,9.5
2023-05-18T08:47:53.250Z,9.4
2023-05-18T08:53:53.256Z,9.6
2023-05-18T08:59:53.113Z,9.7
2023-05-18T09:05:53.430Z,9.6
2023-05-18T09:11:53.335Z,9.8
2023-05-18T09:17:53.447Z,9.4
2023-05-18T09:23:53.425Z,9.7
2023-05-18T09:29:54.169Z,9.3
2023-05-18T09:35:53.191Z,10.2
2023-05-18T09:41:53.279Z,10.5
2023-05-18T09:47:53.964Z,10.1
2023-05-18T09:53:53.272Z,11
2023-05-18T09:59:53.375Z,11.9
2023-05-18T10:05:53.903Z,12.1
2023-05-18T10:11:53.237Z,12.6
2023-05-18T10:17:53.923Z,13.1
2023-05-18T10:23:53.276Z,12.3
2023-05-18T10:29:53.352Z,11.6
2023-05-18T10:35:53.406Z,12
2023-05-18T10:41:53.297Z,11.7
2023-05-18T10:47:53.881Z,12.9
2023-05-18T10:53:56.075Z,12.9
2023-05-18T10:59:53.483Z,12.3
2023-05-18T11:05:53.462Z,12.9
2023-05-18T11:11:53.381Z,12.4
2023-05-18T11:17:53.714Z,13
2023-05-18T11:23:53.179Z,13
2023-05-18T11:30:03.771Z,11.5
2023-05-18T11:35:53.017Z,13.8
2023-05-18T11:41:53.229Z,12.3
2023-05-18T11:47:53.424Z,13.5
2023-05-18T11:53:53.757Z,13.4
2023-05-18T11:59:53.119Z,13.4
2023-05-18T12:05:53.276Z,13.5
2023-05-18T12:11:53.896Z,13.8
2023-05-18T12:17:53.643Z,13.5
2023-05-18T12:29:53.975Z,14.4
2023-05-18T12:35:53.215Z,14.8
2023-05-18T12:41:53.228Z,14.6
2023-05-18T12:47:53.422Z,14.7
2023-05-18T12:53:53.410Z,14
2023-05-18T12:59:53.403Z,14.7
2023-05-18T13:05:53.328Z,14.3
2023-05-18T13:12:06.305Z,14.2
2023-05-18T13:17:53.438Z,14.6
2023-05-18T13:23:53.473Z,14.9
2023-05-18T13:29:53.525Z,15.3
2023-05-18T13:35:53.734Z,15
2023-05-18T13:41:53.355Z,15.7
2023-05-18T13:47:53.297Z,15.2
2023-05-18T13:53:53.249Z,16.2
2023-05-18T13:59:53.329Z,16.2
2023-05-18T14:05:53.781Z,17.4
2023-05-18T14:11:54.000Z,16.1
2023-05-18T14:17:53.302Z,16.9
2023-05-18T14:23:53.534Z,16.3
2023-05-18T14:29:53.823Z,16.8
2023-05-18T14:35:53.311Z,18.7
2023-05-18T14:41:53.705Z,18.2
2023-05-18T14:47:53.761Z,18.6
2023-05-18T14:53:53.285Z,20.1
2023-05-18T14:59:53.547Z,18.7
2023-05-18T15:05:53.783Z,19.4
2023-05-18T15:17:53.476Z,20.5
2023-05-18T15:23:53.286Z,20.3
2023-05-18T15:29:53.608Z,20.5
2023-05-18T15:35:54.125Z,23
2023-05-18T15:41:53.520Z,24
2023-05-18T15:47:53.424Z,23.6
2023-05-18T15:53:53.550Z,20.9
2023-05-18T15:59:53.322Z,17.5
2023-05-18T16:05:53.268Z,21.7
2023-05-18T16:11:53.445Z,23.1
2023-05-18T16:17:53.527Z,24.7
2023-05-18T16:23:53.337Z,22.3
2023-05-18T16:29:53.781Z,22.9
2023-05-18T16:41:53.450Z,25.1
2023-05-18T16:47:53.330Z,25.4
2023-05-18T16:53:53.385Z,26.2
2023-05-18T16:59:53.481Z,27
2023-05-18T17:05:54.592Z,26.1
2023-05-18T17:11:53.349Z,25.8
2023-05-18T17:17:53.365Z,25.3
2023-05-18T17:23:53.426Z,24.5
2023-05-18T17:29:53.430Z,23.5
2023-05-18T17:35:53.306Z,22.6
2023-05-18T17:41:53.762Z,21.7
2023-05-18T17:47:53.600Z,21.2
2023-05-18T17:53:54.395Z,19.8
2023-05-18T18:05:54.442Z,16.3
2023-05-18T18:11:53.780Z,15.6
2023-05-18T18:17:53.822Z,14
2023-05-18T18:23:54.208Z,13.7
2023-05-18T18:29:56.953Z,13.6
2023-05-18T18:35:53.762Z,13.3
2023-05-18T18:41:55.085Z,13.2
2023-05-18T18:47:53.367Z,12.5
2023-05-18T18:53:53.742Z,11.9
2023-05-18T18:59:54.396Z,12
2023-05-18T19:05:53.430Z,11.9
2023-05-18T19:11:53.503Z,11.8
2023-05-18T19:17:54.097Z,11.9
2023-05-18T19:23:54.831Z,11.6
2023-05-18T19:29:53.562Z,11.4
2023-05-18T19:35:53.381Z,11.5
2023-05-18T19:41:53.401Z,11.6
2023-05-18T19:47:53.767Z,11.2
2023-05-18T19:53:54.215Z,11.3
2023-05-18T19:59:53.750Z,11.3
2023-05-18T20:05:54.783Z,11.4
2023-05-18T20:11:54.262Z,11.1
2023-05-18T20:17:53.675Z,11
2023-05-18T20:23:53.622Z,11.1
2023-05-18T20:29:54.995Z,11
2023-05-18T20:35:53.676Z,10.9
2023-05-18T20:41:53.563Z,10.9
2023-05-18T20:47:53.915Z,10.7
2023-05-18T20:53:53.943Z,10.6
2023-05-18T20:59:54.162Z,10.6
2023-05-18T21:05:53.455Z,10.5
2023-05-18T21:11:53.269Z,10.5
2023-05-18T21:17:53.840Z,10.5
2023-05-18T21:23:53.421Z,10.4
2023-05-18T21:29:53.773Z,10.5
2023-05-18T21:35:54.688Z,10.3
2023-05-18T21:41:55.213Z,10.3
2023-05-18T21:47:54.353Z,10.2
2023-05-18T21:53:54.372Z,10.2
2023-05-18T21:59:54.663Z,10
2023-05-18T22:05:54.459Z,9.8
2023-05-18T22:11:53.589Z,9.7
2023-05-18T22:17:56.590Z,9.4
2023-05-18T22:23:53.665Z,9.4
2023-05-18T22:29:55.144Z,9.1
2023-05-18T22:35:53.649Z,9.1
2023-05-18T22:41:53.710Z,8.8
2023-05-18T22:47:53.357Z,8.7
2023-05-18T22:59:54.645Z,8.4
2023-05-18T23:05:54.019Z,8.4
2023-05-18T23:17:53.720Z,8.2
2023-05-18T23:23:53.778Z,8.2
2023-05-18T23:29:53.592Z,7.9
2023-05-18T23:35:53.886Z,7.9
2023-05-18T23:41:53.535Z,7.8
2023-05-18T23:47:53.764Z,7.7
2023-05-18T23:53:54.833Z,7.7
2023-05-18T23:59:53.313Z,7.4
